x

Lake Winnipeg North (45144) Wave Buoy

10:00am - Tue 7th Jul 2015 All times are UTC.

  • Sig Wave height 1.6ft
  • Peak Period 3s
  • Wind
    13mph, 16mph gusts
  • Sea Temp 57°f
  • Air Temp 59°f
  • Sea Pressure 1015.9mb

More Historic Weather Station data

Upgrade to MSW Pro to gain access to the past 30 days of data for over 8000 Wavebouys and Weather Stations around the globe.

Join Pro

Comparision Forecast

View Surf forecast
   
Tue 07/07 10:00am 1.6ft 3s 13 16 mph 1015.9mb 57f 59f
9:00am 1.3ft 3s 16 18 mph 1016.1mb 57f 59f
8:00am 1.3ft 3s 13 16 mph 1016.6mb 57f 60f
7:00am 1.3ft 3s 16 20 mph 1016.7mb 57f 61f
6:00am 1ft 3s 13 16 mph 1016.9mb 57f 61f
5:00am 1ft 2s 11
mph
1017.1mb 58f 60f
4:00am 0.7ft 2s 11 13 mph 1017mb 58f 61f
3:00am 0.3ft 2s 9 11 mph 1017.1mb 58f 61f
2:00am 0.7ft 2s 9 11 mph 1017.6mb 58f 61f
1:00am 0.7ft 2s 11
mph
1017.9mb 58f 61f
12:00am 0.7ft 2s 11
mph
1018.4mb 58f 60f
Mon 07/06 11:00pm 0.7ft 2s 11
mph
1018.8mb 58f 59f
10:00pm 0.7ft 2s 11 13 mph 1019.2mb 58f 58f
9:00pm 0.7ft 3s 11 13 mph 1019.7mb 58f 57f
8:00pm 1ft 3s 7 9 mph 1020.4mb 58f 56f
7:00pm 1.3ft 4s 2 4 mph 1020.6mb 57f 55f
6:00pm 2ft 4s 7 9 mph 1020.9mb 57f 55f
5:00pm 2.5ft 4s 13 16 mph 1021mb 57f 54f
2:00pm 3ft 4s 18 22 mph 1020.5mb 57f 53f
1:00pm 3ft 4s 18 22 mph 1019.9mb 57f 53f
12:00pm  -   -  18
mph
1019mb - 53f
10:00am 3.5ft 4s 18 22 mph 1018mb 57f 51f
8:00am 4.5ft 5s 22 27 mph 1017.2mb 57f 51f
7:00am  -   -  22
mph
1016.8mb - 52f
6:00am 4.5ft 5s 22 29 mph 1016.6mb 58f 52f
5:00am 4.5ft 5s 22 29 mph 1016.1mb 58f 53f
4:00am  -   -  22
mph
1015.5mb - 54f
3:00am 4.5ft 5s 20 25 mph 1015.3mb 59f 54f
2:00am 4.5ft 5s 22 27 mph 1014.6mb 59f 53f
12:00am 5ft 5s 25 31 mph 1012.8mb 60f 55f
Sun 07/05 11:00pm 4.5ft 4s 29 34 mph 1011.9mb 61f 55f
10:00pm 3.5ft 4s 20 27 mph 1011.1mb 61f 57f
9:00pm 3.5ft 4s 20 25 mph 1010.6mb 61f 56f
6:00pm 1.6ft 3s 16 18 mph 1008.8mb 62f 57f
5:00pm 1.6ft 3s 13 16 mph 1008.8mb 62f 57f
4:00pm 2ft 3s 16 18 mph 1008.6mb 62f 57f
2:00pm 2ft 3s 16 20 mph 1008.2mb 62f 62f
1:00pm 2ft 4s 13 16 mph 1007.8mb 62f 62f
12:00pm 2.5ft 4s 11 16 mph 1007.5mb 62f 62f
11:00am 2ft 4s 13 16 mph 1007.3mb 62f 62f
10:00am 2.5ft 4s 13 18 mph 1007.1mb 62f 62f
9:00am 1.6ft 3s 16 18 mph 1006.6mb 62f 63f
8:00am 1.6ft 3s 13 16 mph 1006.6mb 62f 63f
7:00am 1.3ft 3s 16 18 mph 1007.1mb 62f 64f
6:00am 1ft 2s 16 18 mph 1007.2mb 62f 64f
5:00am 0.7ft 3s 11 13 mph 1007.1mb 62f 64f
4:00am 0.7ft 3s 9
mph
1006.5mb 62f 64f
3:00am 1ft 2s 7 9 mph 1005.6mb 62f 63f
2:00am 1ft 2s 9
mph
1005.3mb 62f 64f
1:00am 1ft 2s 9 13 mph 1004.7mb 62f 64f
12:00am 1ft 2s  -  mph - 62f -
Sat 07/04 11:00pm 0.7ft 4s 13
mph
1006mb 63f 64f
10:00pm 1ft 4s 7
mph
1005.2mb 63f 64f
9:00pm 1.3ft 4s 9 11 mph 1004.4mb 63f 65f
8:00pm 1.3ft 4s 7 9 mph 1004.2mb 63f 64f
7:00pm 1.3ft 4s 9
mph
1004.2mb 63f 64f
6:00pm 1.3ft 4s 7 9 mph 1004.5mb 63f 64f
5:00pm 1.3ft 4s 4
mph
1004.7mb 63f 64f
4:00pm 1.3ft 4s 2 7 mph 1004.8mb 62f 64f
2:00pm 1.6ft 4s 7 13 mph 1005mb 62f 64f
1:00pm 1.6ft 4s 4 9 mph 1005mb 62f 63f
12:00pm 1.6ft 4s 9 13 mph 1005mb 62f 65f
11:00am 1.6ft 4s 4 7 mph 1005mb 62f 64f
10:00am 1.6ft 4s 11 13 mph 1004.8mb 62f 65f
9:00am 2.5ft 4s 13 16 mph 1004.8mb 62f 65f
8:00am 2.5ft 4s 13 18 mph 1005mb 63f 69f
7:00am 2.5ft 4s 16 20 mph 1005.9mb 63f 66f
6:00am 2.5ft 4s 16 18 mph 1006.5mb 63f 66f
5:00am 2.5ft 4s 16 18 mph 1007.3mb 63f 66f
4:00am 2ft 3s 16 18 mph 1007.7mb 63f 67f
3:00am 1.6ft 3s 16 18 mph 1007.9mb 63f 67f
2:00am 1.6ft 3s 16
mph
1008.5mb 64f 67f
1:00am 1.3ft 3s 16 18 mph 1009mb 64f 67f
Fri 07/03 11:00pm 1ft 2s 13 16 mph 1010.6mb 65f 67f
10:00pm 0.7ft 2s 11
mph
1011.5mb 65f 66f
9:00pm 0.7ft 2s 9 11 mph 1012.2mb 65f 66f
8:00pm 0.3ft 2s 9 11 mph 1012.7mb 65f 66f
7:00pm 0.3ft 3s 7 9 mph 1013mb 65f 65f
6:00pm 0.3ft 2s 4 7 mph 1013.2mb 65f 64f
5:00pm 0.3ft 2s 7
mph
1013.2mb 64f 64f
4:00pm 0.3ft 2s 4
mph
1013.4mb 64f 64f
3:00pm 0.3ft 2s 2 4 mph 1013.5mb 64f 64f
2:00pm 0.3ft 2s 2
mph
1013.3mb 63f 63f
1:00pm 0.3ft 2s 4
mph
1012.9mb 63f 63f
12:00pm 0.3ft 2s 4
mph
1012.7mb 63f 63f